Time;durP1;ratioP1;P1;durP2;ratioP2;P2;SDS_P1;SDS_P2;PMS_P1;PMS_P2;Temp;Humidity;BMP_temperature;BMP_pressure;BME280_temperature;BME280_humidity;BME280_pressure;Samples;Min_cycle;Max_cycle;Signal;HPM_P1;HPM_P2
2023/10/22 00:03:10;;;;;;;0.82;0.30;;;;;;;11.49;100.00;97557.88;15264105;19;20035;-50
2023/10/22 00:08:34;;;;;;;0.68;0.35;;;;;;;11.44;100.00;97561.13;15272444;19;20016;-51
2023/10/22 00:13:59;;;;;;;2.45;0.38;;;;;;;11.40;100.00;97566.06;15268210;19;20421;-51
2023/10/22 00:19:33;;;;;;;1.65;0.20;;;;;;;11.34;100.00;97564.13;15271227;19;20089;-50
2023/10/22 00:24:57;;;;;;;1.10;0.40;;;;;;;11.36;100.00;97570.16;15264021;19;20018;-52
2023/10/22 00:30:22;;;;;;;1.60;0.50;;;;;;;11.36;100.00;97562.06;15272558;19;20490;-48
2023/10/22 00:35:58;;;;;;;0.63;0.40;;;;;;;11.34;100.00;97558.75;15267929;19;20051;-48
2023/10/22 00:41:23;;;;;;;0.98;0.45;;;;;;;11.37;100.00;97555.66;15286021;19;20491;-50
2023/10/22 00:46:48;;;;;;;0.43;0.28;;;;;;;11.37;100.00;97554.81;15284245;19;20022;-50
2023/10/22 00:52:17;;;;;;;1.30;0.40;;;;;;;11.38;100.00;97562.72;15281107;19;20265;-49
2023/10/22 00:57:42;;;;;;;1.73;0.40;;;;;;;11.39;100.00;97566.28;15280171;19;20316;-48
2023/10/22 01:03:08;;;;;;;0.60;0.35;;;;;;;11.40;100.00;97571.47;15280593;19;20024;-47
2023/10/22 01:08:35;;;;;;;0.30;0.30;;;;;;;11.39;100.00;97566.28;15279813;19;20018;-54
2023/10/22 01:14:00;;;;;;;0.50;0.40;;;;;;;11.35;100.00;97565.78;15278798;19;20018;-48
2023/10/22 01:19:31;;;;;;;1.10;0.30;;;;;;;11.30;100.00;97554.75;15284406;19;20020;-50
2023/10/22 01:24:59;;;;;;;0.40;0.40;;;;;;;11.23;100.00;97554.66;15276420;19;20021;-50
2023/10/22 01:30:24;;;;;;;0.30;0.30;;;;;;;11.21;100.00;97559.38;15284402;19;20356;-51
2023/10/22 01:35:49;;;;;;;1.35;0.32;;;;;;;11.16;100.00;97560.97;15275788;19;20039;-51
2023/10/22 01:41:18;;;;;;;0.98;0.40;;;;;;;11.10;100.00;97565.25;15272159;19;20709;-48
2023/10/22 01:46:44;;;;;;;0.73;0.43;;;;;;;11.05;100.00;97568.50;15279783;19;20021;-48
2023/10/22 01:52:10;;;;;;;0.77;0.47;;;;;;;11.05;100.00;97567.69;15279810;19;20021;-54
2023/10/22 01:57:38;;;;;;;1.48;0.38;;;;;;;10.98;100.00;97562.19;15277290;19;20014;-50
2023/10/22 02:03:03;;;;;;;1.63;0.60;;;;;;;10.95;100.00;97568.75;15273716;19;20031;-48
2023/10/22 02:08:28;;;;;;;0.50;0.40;;;;;;;10.86;100.00;97575.25;15276894;19;20033;-48
2023/10/22 02:13:55;;;;;;;0.43;0.30;;;;;;;10.82;100.00;97575.81;15267365;19;20014;-52
2023/10/22 02:19:27;;;;;;;0.57;0.30;;;;;;;10.79;100.00;97579.72;15274407;19;20043;-49
2023/10/22 02:24:51;;;;;;;0.80;0.50;;;;;;;10.75;100.00;97584.66;15273975;19;20014;-52
2023/10/22 02:30:21;;;;;;;0.45;0.40;;;;;;;10.73;100.00;97588.53;15279380;19;20086;-49
2023/10/22 02:35:47;;;;;;;0.40;0.30;;;;;;;10.69;100.00;97590.75;15277497;19;20010;-51
2023/10/22 02:41:12;;;;;;;0.73;0.32;;;;;;;10.64;100.00;97585.91;15278755;19;20027;-52
2023/10/22 02:46:40;;;;;;;0.68;0.30;;;;;;;10.60;100.00;97581.91;15265300;19;20023;-50
2023/10/22 02:52:05;;;;;;;1.55;0.38;;;;;;;10.56;100.00;97599.47;15277207;19;20494;-49
2023/10/22 02:57:29;;;;;;;0.47;0.30;;;;;;;10.54;100.00;97597.94;15273240;19;20021;-48
2023/10/22 03:02:57;;;;;;;0.80;0.35;;;;;;;10.52;100.00;97610.78;15273167;19;20483;-48
2023/10/22 03:08:22;;;;;;;0.75;0.40;;;;;;;10.46;100.00;97609.66;15277047;19;20362;-49
2023/10/22 03:13:47;;;;;;;0.85;0.50;;;;;;;10.41;100.00;97607.47;15274594;19;20010;-51
2023/10/22 03:19:21;;;;;;;1.27;0.40;;;;;;;10.40;100.00;97624.69;15269097;19;20024;-51
2023/10/22 03:24:45;;;;;;;0.52;0.40;;;;;;;10.37;100.00;97630.38;15271636;19;20019;-50
2023/10/22 03:30:10;;;;;;;0.73;0.50;;;;;;;10.31;100.00;97625.69;15274108;19;20090;-48
2023/10/22 03:35:37;;;;;;;1.33;0.50;;;;;;;10.22;100.00;97621.41;15268495;19;20018;-48
2023/10/22 03:41:07;;;;;;;0.73;0.40;;;;;;;10.14;100.00;97627.66;15273855;19;20025;-48
2023/10/22 03:46:31;;;;;;;1.77;0.50;;;;;;;10.10;100.00;97620.97;15271775;19;20018;-52
2023/10/22 03:51:59;;;;;;;1.38;0.50;;;;;;;10.07;100.00;97624.03;15263813;19;20018;-48
2023/10/22 03:57:24;;;;;;;0.57;0.50;;;;;;;10.03;100.00;97629.75;15271187;19;20027;-50
2023/10/22 04:02:48;;;;;;;1.35;0.52;;;;;;;10.00;100.00;97640.03;15269637;19;20018;-51
2023/10/22 04:08:15;;;;;;;1.10;0.55;;;;;;;9.96;100.00;97644.94;15271473;19;20016;-49
2023/10/22 04:13:40;;;;;;;1.15;0.73;;;;;;;9.91;100.00;97647.31;15264244;19;20018;-49
2023/10/22 04:19:11;;;;;;;0.88;0.68;;;;;;;9.86;100.00;97663.97;15268260;19;20021;-49
2023/10/22 04:24:38;;;;;;;0.97;0.60;;;;;;;9.80;100.00;97661.16;15266683;19;20081;-49
2023/10/22 04:30:04;;;;;;;3.00;0.80;;;;;;;9.78;100.00;97669.41;15271993;19;20126;-47
2023/10/22 04:35:29;;;;;;;1.65;0.70;;;;;;;9.75;100.00;97671.63;15261355;19;20606;-52
2023/10/22 04:40:57;;;;;;;2.45;0.68;;;;;;;9.75;100.00;97671.63;15268897;19;20011;-48
2023/10/22 04:46:22;;;;;;;1.13;0.70;;;;;;;9.71;100.00;97669.25;15268466;19;20010;-52
2023/10/22 04:51:47;;;;;;;1.50;0.70;;;;;;;9.70;100.00;97678.34;15269735;19;20037;-51
2023/10/22 04:57:14;;;;;;;2.20;0.80;;;;;;;9.70;100.00;97677.53;15267702;19;20007;-48
2023/10/22 05:02:39;;;;;;;1.75;0.75;;;;;;;9.67;100.00;97677.84;15266827;19;20375;-49
2023/10/22 05:08:05;;;;;;;2.05;1.00;;;;;;;9.64;100.00;97691.66;15269165;19;20050;-49
2023/10/22 05:13:33;;;;;;;1.40;0.90;;;;;;;9.62;100.00;97691.81;15266561;19;20254;-50
2023/10/22 05:19:04;;;;;;;1.52;0.90;;;;;;;9.56;100.00;97693.38;15267507;19;20015;-47
2023/10/22 05:24:30;;;;;;;1.50;0.87;;;;;;;9.50;100.00;97696.72;15269785;19;20017;-50
2023/10/22 05:29:58;;;;;;;1.92;0.90;;;;;;;9.44;100.00;97693.88;15287980;19;20482;-48
2023/10/22 05:35:24;;;;;;;1.65;1.00;;;;;;;9.39;100.00;97702.47;15279802;19;20027;-50
2023/10/22 05:40:49;;;;;;;2.80;1.20;;;;;;;9.37;100.00;97710.72;15277398;19;20016;-48
2023/10/22 05:46:16;;;;;;;1.90;1.20;;;;;;;9.32;100.00;97723.81;15273432;19;20345;-50
2023/10/22 05:51:41;;;;;;;3.13;1.30;;;;;;;9.30;100.00;97736.56;15278197;19;20025;-50
2023/10/22 05:57:06;;;;;;;2.53;1.20;;;;;;;9.29;100.00;97742.97;15274719;19;20022;-50
2023/10/22 06:02:34;;;;;;;2.95;1.15;;;;;;;9.29;100.00;97755.56;15277184;19;21016;-54
2023/10/22 06:07:59;;;;;;;2.42;1.13;;;;;;;9.29;100.00;97766.31;15279128;19;20400;-53
2023/10/22 06:13:24;;;;;;;2.25;1.38;;;;;;;9.27;100.00;97785.31;15273346;19;20025;-53
2023/10/22 06:18:58;;;;;;;2.45;1.10;;;;;;;9.22;100.00;97769.72;15272549;19;20018;-50
2023/10/22 06:24:24;;;;;;;3.05;1.25;;;;;;;9.21;100.00;97778.78;15274668;19;20010;-53
2023/10/22 06:29:50;;;;;;;1.70;1.10;;;;;;;9.21;100.00;97785.97;15271226;19;20006;-53
2023/10/22 06:35:17;;;;;;;2.45;1.10;;;;;;;9.19;100.00;97782.63;15270452;19;20018;-51
2023/10/22 06:40:43;;;;;;;2.53;1.20;;;;;;;9.18;100.00;97787.16;15276425;19;20488;-55
2023/10/22 06:46:08;;;;;;;8.73;3.85;;;;;;;9.17;100.00;97790.03;15270975;19;20025;-53
2023/10/22 06:51:35;;;;;;;5.72;3.35;;;;;;;9.14;100.00;97807.31;15274900;19;20093;-50
2023/10/22 06:56:59;;;;;;;1.88;1.60;;;;;;;9.18;100.00;97797.91;15274436;19;20015;-49
2023/10/22 07:02:24;;;;;;;1.85;1.10;;;;;;;9.20;100.00;97798.59;15267158;19;20022;-51
2023/10/22 07:07:51;;;;;;;4.47;1.20;;;;;;;9.27;100.00;97798.75;15275846;19;20038;-52
2023/10/22 07:13:18;;;;;;;2.75;0.98;;;;;;;9.34;100.00;97810.50;15270536;19;20077;-53
2023/10/22 07:18:49;;;;;;;3.50;1.10;;;;;;;9.47;100.00;97812.69;15269620;19;20094;-50
2023/10/22 07:24:16;;;;;;;4.20;1.13;;;;;;;9.57;100.00;97823.25;15271030;19;20039;-52
2023/10/22 07:29:41;;;;;;;2.92;0.90;;;;;;;9.68;100.00;97830.16;15273179;19;20010;-51
2023/10/22 07:35:08;;;;;;;3.50;1.10;;;;;;;9.75;100.00;97836.53;15265167;19;20014;-54
2023/10/22 07:40:36;;;;;;;1.33;0.80;;;;;;;9.85;100.00;97839.03;15272437;19;20015;-49
2023/10/22 07:46:03;;;;;;;3.05;1.10;;;;;;;9.94;100.00;97847.91;15265876;19;20017;-48
2023/10/22 07:51:29;;;;;;;1.92;0.93;;;;;;;9.99;100.00;97865.25;15270196;19;20022;-49
2023/10/22 07:56:57;;;;;;;3.78;1.10;;;;;;;10.05;100.00;97877.19;15269674;19;20504;-53
2023/10/22 08:02:21;;;;;;;2.67;1.10;;;;;;;10.19;100.00;97878.31;15268444;19;20007;-56
2023/10/22 08:07:46;;;;;;;4.43;1.20;;;;;;;10.31;100.00;97884.16;15266104;19;20359;-49
2023/10/22 08:13:13;;;;;;;3.05;1.00;;;;;;;10.46;100.00;97890.53;15260604;19;20333;-50
2023/10/22 08:18:44;;;;;;;4.00;1.05;;;;;;;10.64;100.00;97890.31;15262913;19;20022;-50
2023/10/22 08:24:10;;;;;;;1.38;0.70;;;;;;;10.80;100.00;97893.94;15267827;19;20014;-50
2023/10/22 08:29:38;;;;;;;2.25;0.95;;;;;;;10.93;100.00;97901.44;15268894;19;20348;-54
2023/10/22 08:35:04;;;;;;;4.82;0.90;;;;;;;11.06;100.00;97900.88;15266065;19;20369;-56
2023/10/22 08:40:31;;;;;;;2.10;0.90;;;;;;;11.24;100.00;97887.97;15263967;19;20019;-50
2023/10/22 08:45:58;;;;;;;5.07;1.00;;;;;;;11.37;100.00;97875.75;15263983;19;20017;-47
2023/10/22 08:51:23;;;;;;;2.33;0.80;;;;;;;11.48;100.00;97875.31;15266999;19;20035;-48
2023/10/22 08:56:48;;;;;;;3.95;1.10;;;;;;;11.63;100.00;97852.94;15269883;19;20023;-51
2023/10/22 09:02:21;;;;;;;5.50;1.13;;;;;;;11.76;100.00;97846.91;15282794;19;20025;-54
2023/10/22 09:07:54;;;;;;;2.85;0.88;;;;;;;11.85;100.00;97832.31;15282733;19;20015;-50
2023/10/22 09:13:22;;;;;;;2.10;0.85;;;;;;;11.94;100.00;97814.19;15269856;19;20032;-56
2023/10/22 09:18:50;;;;;;;2.97;0.90;;;;;;;12.08;100.00;97799.03;15277768;19;20086;-56
2023/10/22 09:24:16;;;;;;;4.13;1.08;;;;;;;12.17;100.00;97811.44;15278611;19;20018;-59
2023/10/22 09:29:50;;;;;;;3.85;1.10;;;;;;;12.30;100.00;97792.69;15283407;19;20476;-58
2023/10/22 09:35:23;;;;;;;3.25;0.90;;;;;;;12.44;100.00;97801.81;15277775;19;20014;-55
2023/10/22 09:40:48;;;;;;;3.92;0.82;;;;;;;12.59;100.00;97787.44;15282115;19;20371;-56
2023/10/22 09:46:14;;;;;;;3.83;1.10;;;;;;;12.71;100.00;97804.00;15269398;19;20490;-53
2023/10/22 09:51:43;;;;;;;3.88;1.10;;;;;;;12.92;100.00;97814.84;15280788;19;20015;-58
2023/10/22 09:57:16;;;;;;;1.95;1.00;;;;;;;13.14;100.00;97793.22;15278725;19;20021;-56
2023/10/22 10:02:42;;;;;;;5.75;1.02;;;;;;;13.23;100.00;97783.13;15276024;19;20014;-56
2023/10/22 10:08:10;;;;;;;3.47;1.10;;;;;;;13.37;100.00;97787.63;15269817;19;20014;-57
2023/10/22 10:13:35;;;;;;;2.55;0.90;;;;;;;13.73;100.00;97752.53;15272785;19;20029;-53
2023/10/22 10:19:12;;;;;;;4.25;1.40;;;;;;;14.03;100.00;97731.47;15268227;19;20018;-55
2023/10/22 10:24:39;;;;;;;2.28;0.80;;;;;;;14.29;100.00;97719.03;15274179;19;20019;-53
2023/10/22 10:30:25;;;;;;;2.42;0.80;;;;;;;14.42;100.00;97697.41;15278102;19;20014;-56
2023/10/22 10:35:51;;;;;;;3.95;1.10;;;;;;;14.55;100.00;97684.94;15276622;19;20614;-56
2023/10/22 10:41:19;;;;;;;2.42;0.90;;;;;;;14.59;100.00;97688.91;15274883;19;20018;-58
2023/10/22 10:46:45;;;;;;;2.60;1.10;;;;;;;14.59;100.00;97661.81;15272465;19;20027;-56
2023/10/22 10:52:09;;;;;;;1.98;0.80;;;;;;;14.68;100.00;97657.91;15273794;19;20025;-55
2023/10/22 10:57:49;;;;;;;1.23;0.65;;;;;;;14.78;100.00;97658.31;15276903;19;20053;-57
2023/10/22 11:03:23;;;;;;;2.10;0.75;;;;;;;14.90;100.00;97644.13;15269689;19;20022;-55
2023/10/22 11:08:54;;;;;;;2.28;0.88;;;;;;;14.98;100.00;97651.25;15271922;19;20022;-56
2023/10/22 11:14:21;;;;;;;2.10;0.88;;;;;;;15.16;100.00;97646.03;15262984;19;20086;-56
2023/10/22 11:19:59;;;;;;;1.88;0.77;;;;;;;15.07;100.00;97656.25;15258643;19;20022;-55
2023/10/22 11:25:24;;;;;;;1.67;0.75;;;;;;;14.88;100.00;97670.63;15268066;19;20479;-55
2023/10/22 11:30:54;;;;;;;2.92;0.88;;;;;;;14.70;100.00;97661.25;15264171;19;20034;-56
2023/10/22 11:36:21;;;;;;;1.67;0.68;;;;;;;14.57;100.00;97655.75;15261970;19;20010;-54
2023/10/22 11:41:45;;;;;;;1.98;0.63;;;;;;;14.52;100.00;97650.16;15260685;19;20022;-56
2023/10/22 11:47:33;;;;;;;2.10;0.75;;;;;;;14.39;100.00;97673.47;15257834;19;20015;-58
2023/10/22 11:52:59;;;;;;;2.85;0.70;;;;;;;14.28;100.00;97666.75;15255816;19;20018;-55
2023/10/22 11:58:27;;;;;;;1.42;0.70;;;;;;;14.37;100.00;97680.09;15262678;19;20022;-57
2023/10/22 12:03:55;;;;;;;2.45;0.88;;;;;;;14.41;100.00;97679.47;15257721;19;20021;-56
2023/10/22 12:09:21;;;;;;;1.75;0.70;;;;;;;14.38;100.00;97690.75;15262012;19;20010;-58
2023/10/22 12:14:46;;;;;;;2.90;0.80;;;;;;;14.37;100.00;97694.50;15251911;19;20089;-57
2023/10/22 12:20:21;;;;;;;3.00;0.82;;;;;;;14.36;100.00;97706.38;15260316;19;20364;-59
2023/10/22 12:25:47;;;;;;;1.35;0.70;;;;;;;14.36;100.00;97703.66;15250752;19;20035;-57
2023/10/22 12:31:15;;;;;;;2.33;0.80;;;;;;;14.32;100.00;97722.22;15259167;19;20018;-58
2023/10/22 12:36:43;;;;;;;2.83;1.10;;;;;;;14.29;100.00;97721.75;15259484;19;20106;-57
2023/10/22 12:42:09;;;;;;;1.88;0.60;;;;;;;14.23;100.00;97715.28;15258978;19;20456;-58
2023/10/22 12:47:34;;;;;;;2.55;0.98;;;;;;;14.26;100.00;97717.59;15257280;19;20021;-59
2023/10/22 12:53:02;;;;;;;3.30;1.00;;;;;;;14.36;100.00;97729.91;15254796;19;20010;-60
2023/10/22 12:58:34;;;;;;;1.70;0.70;;;;;;;14.42;100.00;97729.94;15253268;19;20692;-58
2023/10/22 13:03:59;;;;;;;2.47;1.00;;;;;;;14.42;100.00;97743.47;15253230;19;20011;-57
2023/10/22 13:09:26;;;;;;;2.67;0.90;;;;;;;14.32;100.00;97734.91;15258408;19;20014;-60
2023/10/22 13:14:51;;;;;;;3.08;0.77;;;;;;;14.25;100.00;97744.88;15250570;19;20022;-58
2023/10/22 13:20:23;;;;;;;1.75;0.70;;;;;;;14.25;100.00;97753.00;15253986;19;20025;-56
2023/10/22 13:25:52;;;;;;;2.97;1.05;;;;;;;14.30;100.00;97754.09;15252954;19;20021;-56
2023/10/22 13:31:16;;;;;;;1.63;0.75;;;;;;;14.32;100.00;97762.00;15252867;19;20026;-58
2023/10/22 13:36:41;;;;;;;2.63;0.80;;;;;;;14.33;100.00;97760.97;15254953;19;20430;-58
2023/10/22 13:42:10;;;;;;;3.20;0.60;;;;;;;14.36;100.00;97766.00;15255605;19;20798;-54
2023/10/22 13:47:37;;;;;;;1.55;0.68;;;;;;;14.30;100.00;97781.19;15266827;19;20862;-58
2023/10/22 13:53:02;;;;;;;2.22;0.90;;;;;;;14.27;100.00;97780.75;15265235;19;20382;-58
2023/10/22 13:58:31;;;;;;;1.63;0.77;;;;;;;14.27;100.00;97786.16;15268988;19;20474;-59
2023/10/22 14:03:56;;;;;;;2.10;0.68;;;;;;;14.21;100.00;97790.53;15258277;19;20036;-58
2023/10/22 14:09:21;;;;;;;1.50;0.73;;;;;;;14.17;100.00;97791.94;15254551;19;20042;-59
2023/10/22 14:14:49;;;;;;;2.75;0.85;;;;;;;14.11;100.00;97793.56;15264685;19;20017;-58
2023/10/22 14:20:21;;;;;;;3.40;1.02;;;;;;;14.07;100.00;97795.00;15264101;19;20015;-59
2023/10/22 14:25:58;;;;;;;3.05;1.00;;;;;;;14.03;100.00;97796.47;15260072;19;20025;-56
2023/10/22 14:31:25;;;;;;;3.58;1.27;;;;;;;14.01;100.00;97807.47;15268956;19;20019;-54
2023/10/22 14:36:50;;;;;;;3.05;1.00;;;;;;;13.99;100.00;97814.13;15261542;19;20014;-58
2023/10/22 14:42:15;;;;;;;3.63;1.23;;;;;;;13.99;100.00;97822.25;15266108;19;20022;-59
2023/10/22 14:47:43;;;;;;;4.28;1.10;;;;;;;13.96;100.00;97828.06;15261409;19;20053;-58
2023/10/22 14:53:07;;;;;;;3.10;1.00;;;;;;;13.93;100.00;97831.19;15264800;19;20018;-59
2023/10/22 14:58:33;;;;;;;3.00;1.20;;;;;;;13.91;100.00;97833.25;15267080;19;20035;-59
2023/10/22 15:04:00;;;;;;;1.98;0.90;;;;;;;13.91;100.00;97841.38;15263233;19;20038;-59
2023/10/22 15:09:25;;;;;;;3.22;1.00;;;;;;;13.88;100.00;97842.56;15256339;19;20389;-61
2023/10/22 15:14:49;;;;;;;3.42;0.93;;;;;;;13.87;100.00;97839.03;15261406;19;20540;-59
2023/10/22 15:20:24;;;;;;;1.90;0.75;;;;;;;13.85;100.00;97849.22;15259050;19;20022;-57
2023/10/22 15:25:53;;;;;;;3.20;0.90;;;;;;;13.81;100.00;97849.81;15270261;19;20082;-59
2023/10/22 15:31:18;;;;;;;3.35;1.00;;;;;;;13.78;100.00;97842.94;15283743;19;20034;-60
2023/10/22 15:36:45;;;;;;;3.92;1.00;;;;;;;13.78;100.00;97848.34;15272160;19;20105;-60
2023/10/22 15:42:11;;;;;;;2.47;0.98;;;;;;;13.75;100.00;97854.16;15267129;19;20588;-59
2023/10/22 15:47:36;;;;;;;2.55;0.90;;;;;;;13.70;100.00;97851.22;15264758;19;20368;-57
2023/10/22 15:53:03;;;;;;;3.63;0.80;;;;;;;13.65;100.00;97861.78;15264175;19;20019;-57
2023/10/22 15:58:28;;;;;;;4.18;1.17;;;;;;;13.55;100.00;97865.66;15272194;19;20460;-57
2023/10/22 16:03:53;;;;;;;2.13;0.80;;;;;;;13.50;100.00;97876.22;15264617;19;20013;-58
2023/10/22 16:09:20;;;;;;;2.70;0.93;;;;;;;13.44;100.00;97879.69;15262761;19;20039;-58
2023/10/22 16:14:45;;;;;;;3.30;0.90;;;;;;;13.38;100.00;97886.69;15263167;19;20476;-57
2023/10/22 16:20:19;;;;;;;2.95;0.98;;;;;;;13.36;100.00;97893.31;15266339;19;20025;-59
2023/10/22 16:25:49;;;;;;;4.55;1.08;;;;;;;13.33;100.00;97904.53;15265203;19;20011;-57
2023/10/22 16:31:13;;;;;;;4.72;1.42;;;;;;;13.37;100.00;97898.53;15269935;19;20035;-56
2023/10/22 16:36:38;;;;;;;4.82;1.30;;;;;;;13.39;100.00;97901.94;15267737;19;20014;-58
2023/10/22 16:42:05;;;;;;;3.22;1.13;;;;;;;13.39;100.00;97909.16;15268662;19;20014;-59
2023/10/22 16:47:31;;;;;;;7.25;1.63;;;;;;;13.38;100.00;97923.72;15264462;19;20017;-56
2023/10/22 16:52:56;;;;;;;4.35;1.45;;;;;;;13.38;100.00;97931.84;15266155;19;20017;-57
2023/10/22 16:58:24;;;;;;;5.60;1.23;;;;;;;13.39;100.00;97938.91;15266834;19;20496;-56
2023/10/22 17:03:49;;;;;;;4.45;1.40;;;;;;;13.35;100.00;97940.31;15265108;19;20021;-57
2023/10/22 17:09:15;;;;;;;4.70;1.35;;;;;;;13.30;100.00;97937.38;15263694;19;20014;-57
2023/10/22 17:14:42;;;;;;;3.90;1.33;;;;;;;13.24;100.00;97947.09;15258740;19;21602;-58
2023/10/22 17:20:17;;;;;;;3.97;1.38;;;;;;;13.17;100.00;97949.72;15271474;19;20014;-53
2023/10/22 17:25:48;;;;;;;5.60;1.67;;;;;;;13.16;100.00;97953.44;15274351;19;20009;-56
2023/10/22 17:31:22;;;;;;;3.85;1.50;;;;;;;13.10;100.00;97965.03;15280332;19;20064;-57
2023/10/22 17:36:47;;;;;;;5.60;1.33;;;;;;;13.08;100.00;97972.47;15256814;19;20014;-56
2023/10/22 17:42:13;;;;;;;4.18;1.45;;;;;;;13.04;100.00;97971.19;15279064;19;20018;-57
2023/10/22 17:47:41;;;;;;;5.13;1.33;;;;;;;12.99;100.00;97976.31;15272626;19;20355;-59
2023/10/22 17:53:06;;;;;;;4.00;1.42;;;;;;;12.95;100.00;97978.53;15277094;19;20023;-57
2023/10/22 17:58:44;;;;;;;4.72;1.60;;;;;;;12.90;100.00;97989.09;15276637;19;20026;-57
2023/10/22 18:04:11;;;;;;;4.07;1.50;;;;;;;12.88;100.00;97977.63;15275934;19;20020;-59
2023/10/22 18:09:36;;;;;;;5.00;1.63;;;;;;;12.85;100.00;97984.25;15275423;19;20018;-57
2023/10/22 18:15:06;;;;;;;5.70;1.88;;;;;;;12.79;100.00;97999.34;15278743;19;20093;-56
2023/10/22 18:20:43;;;;;;;5.60;1.90;;;;;;;12.78;100.00;97994.97;15276408;19;20093;-55
2023/10/22 18:26:10;;;;;;;4.82;1.63;;;;;;;12.83;100.00;98007.94;15275325;19;20018;-55
2023/10/22 18:31:35;;;;;;;4.53;1.40;;;;;;;12.85;100.00;98011.28;15274297;19;20031;-56
2023/10/22 18:37:04;;;;;;;5.20;1.80;;;;;;;12.87;100.00;98027.31;15272027;19;20006;-54
2023/10/22 18:42:29;;;;;;;6.22;2.60;;;;;;;12.86;100.00;98037.31;15269984;19;20337;-54
2023/10/22 18:47:55;;;;;;;6.28;2.80;;;;;;;12.84;100.00;98044.75;14765234;19;10000623;-56
2023/10/22 18:53:22;;;;;;;6.25;2.75;;;;;;;12.85;100.00;98046.44;15266550;19;20022;-57
2023/10/22 18:58:47;;;;;;;6.28;2.53;;;;;;;12.84;100.00;98055.56;15277146;19;20014;-58
2023/10/22 19:04:11;;;;;;;4.72;2.00;;;;;;;12.84;100.00;98055.56;15272608;19;20704;-55
2023/10/22 19:09:38;;;;;;;4.75;1.63;;;;;;;12.84;100.00;98062.81;15272666;19;20078;-53
2023/10/22 19:15:03;;;;;;;6.45;1.75;;;;;;;12.87;100.00;98074.13;15268377;19;20090;-54
2023/10/22 19:20:36;;;;;;;4.97;1.65;;;;;;;12.91;100.00;98067.31;15269290;19;20455;-58
2023/10/22 19:26:06;;;;;;;5.05;2.00;;;;;;;12.91;100.00;98074.59;15266368;19;20017;-59
2023/10/22 19:31:32;;;;;;;4.90;2.22;;;;;;;12.88;100.00;98081.19;15271349;19;20033;-57
2023/10/22 19:37:00;;;;;;;5.50;2.10;;;;;;;12.87;100.00;98086.78;15286064;19;20014;-56
2023/10/22 19:42:32;;;;;;;7.32;2.40;;;;;;;12.84;100.00;98090.72;15286819;19;20535;-60
2023/10/22 19:47:57;;;;;;;4.60;1.70;;;;;;;12.81;100.00;98090.25;15268984;19;20030;-54
2023/10/22 19:53:22;;;;;;;5.90;1.77;;;;;;;12.79;100.00;98093.97;15270577;19;20039;-59
2023/10/22 19:58:51;;;;;;;3.95;1.63;;;;;;;12.79;100.00;98099.38;15266963;19;20014;-55
2023/10/22 20:04:19;;;;;;;4.80;1.70;;;;;;;12.73;100.00;98110.06;15269529;19;20082;-58
2023/10/22 20:09:44;;;;;;;4.57;1.60;;;;;;;12.70;100.00;98115.84;15267708;19;20014;-56
2023/10/22 20:15:12;;;;;;;5.18;1.70;;;;;;;12.67;100.00;98122.47;15266764;19;20255;-57
2023/10/22 20:20:45;;;;;;;5.15;1.75;;;;;;;12.65;100.00;98129.91;15265518;19;20025;-58
2023/10/22 20:26:11;;;;;;;4.78;1.80;;;;;;;12.64;100.00;98134.44;15271911;19;20019;-57
2023/10/22 20:31:38;;;;;;;5.22;1.63;;;;;;;12.62;100.00;98141.91;15264850;19;20018;-57
2023/10/22 20:37:08;;;;;;;3.60;1.50;;;;;;;12.61;100.00;98131.28;15269359;19;20006;-58
2023/10/22 20:42:34;;;;;;;4.20;1.77;;;;;;;12.60;100.00;98133.16;15270251;19;20018;-60
2023/10/22 20:48:02;;;;;;;5.60;1.73;;;;;;;12.61;100.00;98129.44;15268427;19;20090;-58
2023/10/22 20:53:27;;;;;;;4.97;1.63;;;;;;;12.62;100.00;98136.53;15271859;19;20018;-58
2023/10/22 20:58:52;;;;;;;6.22;1.85;;;;;;;12.60;100.00;98126.88;15283335;19;20018;-59
2023/10/22 21:04:19;;;;;;;5.35;1.60;;;;;;;12.57;100.00;98128.09;15275254;19;20018;-58
2023/10/22 21:09:45;;;;;;;3.38;1.48;;;;;;;12.57;100.00;98122.69;15280818;19;20011;-59
2023/10/22 21:15:09;;;;;;;7.38;1.70;;;;;;;12.58;100.00;98127.09;15279267;19;20476;-58
2023/10/22 21:20:43;;;;;;;5.05;1.65;;;;;;;12.59;100.00;98120.66;15278055;19;20541;-58
2023/10/22 21:26:08;;;;;;;5.05;1.63;;;;;;;12.61;100.00;98125.88;15284816;19;20014;-58
2023/10/22 21:31:33;;;;;;;3.67;1.45;;;;;;;12.59;100.00;98133.31;15278542;19;20018;-58
2023/10/22 21:37:01;;;;;;;4.85;1.60;;;;;;;12.55;100.00;98132.84;15273203;19;20067;-59
2023/10/22 21:42:25;;;;;;;5.75;1.70;;;;;;;12.51;100.00;98131.53;15281112;19;20078;-56
2023/10/22 21:47:51;;;;;;;5.57;1.65;;;;;;;12.50;100.00;98124.47;15276704;19;20015;-55
2023/10/22 21:53:19;;;;;;;5.70;1.50;;;;;;;12.48;100.00;98135.41;15280486;19;20043;-59
2023/10/22 21:58:45;;;;;;;5.15;1.38;;;;;;;12.49;100.00;98130.88;15278303;19;20007;-55
2023/10/22 22:04:09;;;;;;;6.07;1.65;;;;;;;12.51;100.00;98141.50;15275905;19;20833;-59
2023/10/22 22:09:37;;;;;;;4.78;1.45;;;;;;;12.50;100.00;98140.66;15270970;19;20348;-58
2023/10/22 22:15:02;;;;;;;8.60;1.88;;;;;;;12.49;100.00;98134.41;15275889;19;20016;-58
2023/10/22 22:20:33;;;;;;;7.97;1.60;;;;;;;12.48;100.00;98137.31;15272817;19;20035;-59
2023/10/22 22:26:01;;;;;;;5.03;1.63;;;;;;;12.45;100.00;98138.50;15279211;19;20018;-59
2023/10/22 22:31:27;;;;;;;5.13;1.67;;;;;;;12.43;100.00;98135.16;15274161;19;20690;-59
2023/10/22 22:36:52;;;;;;;6.28;1.50;;;;;;;12.40;100.00;98137.38;15279408;19;20046;-58
2023/10/22 22:42:19;;;;;;;6.28;1.52;;;;;;;12.38;100.00;98142.09;15274593;19;20649;-58
2023/10/22 22:47:44;;;;;;;4.65;1.45;;;;;;;12.37;100.00;98143.13;15277441;19;20021;-59
2023/10/22 22:53:09;;;;;;;4.97;1.70;;;;;;;12.33;100.00;98156.16;15277592;19;20082;-58
2023/10/22 22:58:37;;;;;;;4.95;1.60;;;;;;;12.32;100.00;98140.97;15277375;19;20023;-57
2023/10/22 23:04:02;;;;;;;5.70;1.48;;;;;;;12.31;100.00;98150.91;15274957;19;20017;-54
2023/10/22 23:09:27;;;;;;;7.32;1.67;;;;;;;12.29;100.00;98147.53;15275113;19;20377;-58
2023/10/22 23:14:55;;;;;;;4.95;1.60;;;;;;;12.28;100.00;98154.00;15270598;19;20014;-58
2023/10/22 23:20:20;;;;;;;4.10;1.50;;;;;;;12.25;100.00;98142.69;15273366;19;20014;-56
2023/10/22 23:25:46;;;;;;;5.53;1.58;;;;;;;12.23;100.00;98148.28;15270864;19;20027;-59
2023/10/22 23:31:14;;;;;;;4.95;1.40;;;;;;;12.24;100.00;98143.69;15269953;19;20034;-58
2023/10/22 23:36:39;;;;;;;5.32;1.45;;;;;;;12.21;100.00;98139.50;15273501;19;20014;-60
2023/10/22 23:42:04;;;;;;;4.22;1.50;;;;;;;12.15;100.00;98140.22;15272871;19;20020;-58
2023/10/22 23:47:31;;;;;;;4.40;1.30;;;;;;;12.09;100.00;98143.63;15274570;19;20021;-57
2023/10/22 23:52:58;;;;;;;5.93;1.48;;;;;;;12.06;100.00;98142.13;15272074;19;20819;-60
2023/10/22 23:58:25;;;;;;;4.53;1.33;;;;;;;12.06;100.00;98146.69;15274911;19;20014;-58
